Terminal Aerodrome Forecast
Issued by NWS

Home | Current Version | Previous Version | Graphics & Text | Print | Product List | Glossary On
Versions: 1 2 3 4 5 6 7 8 9 10 11 12 13 14 15 16 17 18 19 20 21 22 23 24 25 26 27 28 29 30
000
FTUS45 KGGW 251727 AAA
TAFOLF
TAF AMD
KOLF 251727Z 2517/2618 27022G30KT P6SM FEW035 BKN045
     FM260300 29012KT P6SM SCT045
     FM261500 29016KT P6SM SCT100=

USA.gov is the U.S. government's official web portal to all federal, state and local government web resources and services.